sensor_id;sensor_type;location;lat;lon;timestamp;P1;durP1;ratioP1;P2;durP2;ratioP2
77111;SDS011;66064;50.226;14.344;2023-07-13T00:00:35;5.75;;;4.32;;
77111;SDS011;66064;50.226;14.344;2023-07-13T00:03:23;6.05;;;5.45;;
77111;SDS011;66064;50.226;14.344;2023-07-13T00:05:56;6.10;;;4.65;;
77111;SDS011;66064;50.226;14.344;2023-07-13T00:08:23;6.13;;;4.85;;
77111;SDS011;66064;50.226;14.344;2023-07-13T00:10:51;4.95;;;4.43;;
77111;SDS011;66064;50.226;14.344;2023-07-13T00:13:19;6.13;;;4.97;;
77111;SDS011;66064;50.226;14.344;2023-07-13T00:15:46;6.57;;;5.25;;
77111;SDS011;66064;50.226;14.344;2023-07-13T00:18:12;4.82;;;4.22;;
77111;SDS011;66064;50.226;14.344;2023-07-13T00:20:38;6.07;;;4.85;;
77111;SDS011;66064;50.226;14.344;2023-07-13T00:23:03;6.70;;;4.63;;
77111;SDS011;66064;50.226;14.344;2023-07-13T00:25:29;6.93;;;4.85;;
77111;SDS011;66064;50.226;14.344;2023-07-13T00:27:56;7.60;;;4.90;;
77111;SDS011;66064;50.226;14.344;2023-07-13T00:30:22;5.75;;;4.93;;
77111;SDS011;66064;50.226;14.344;2023-07-13T00:32:48;5.90;;;4.85;;
77111;SDS011;66064;50.226;14.344;2023-07-13T00:35:14;6.45;;;5.70;;
77111;SDS011;66064;50.226;14.344;2023-07-13T00:37:41;6.32;;;5.72;;
77111;SDS011;66064;50.226;14.344;2023-07-13T00:40:08;6.15;;;4.93;;
77111;SDS011;66064;50.226;14.344;2023-07-13T00:42:35;6.00;;;5.07;;
77111;SDS011;66064;50.226;14.344;2023-07-13T00:47:36;5.55;;;4.65;;
77111;SDS011;66064;50.226;14.344;2023-07-13T00:50:03;6.57;;;5.35;;
77111;SDS011;66064;50.226;14.344;2023-07-13T00:52:33;6.03;;;4.85;;
77111;SDS011;66064;50.226;14.344;2023-07-13T00:55:06;7.57;;;5.43;;
77111;SDS011;66064;50.226;14.344;2023-07-13T00:57:32;4.93;;;4.43;;
77111;SDS011;66064;50.226;14.344;2023-07-13T00:59:59;5.88;;;4.72;;
77111;SDS011;66064;50.226;14.344;2023-07-13T01:02:32;5.47;;;4.97;;
77111;SDS011;66064;50.226;14.344;2023-07-13T01:04:59;6.40;;;5.80;;
77111;SDS011;66064;50.226;14.344;2023-07-13T01:07:27;5.95;;;4.88;;
77111;SDS011;66064;50.226;14.344;2023-07-13T01:09:53;7.15;;;5.55;;
77111;SDS011;66064;50.226;14.344;2023-07-13T01:12:19;5.85;;;5.15;;
77111;SDS011;66064;50.226;14.344;2023-07-13T01:14:45;5.93;;;5.28;;
77111;SDS011;66064;50.226;14.344;2023-07-13T01:17:12;5.13;;;4.68;;
77111;SDS011;66064;50.226;14.344;2023-07-13T01:19:39;7.00;;;6.30;;
77111;SDS011;66064;50.226;14.344;2023-07-13T01:22:09;6.10;;;5.22;;
77111;SDS011;66064;50.226;14.344;2023-07-13T01:24:39;6.82;;;5.28;;
77111;SDS011;66064;50.226;14.344;2023-07-13T01:27:08;7.97;;;4.85;;
77111;SDS011;66064;50.226;14.344;2023-07-13T01:29:35;5.15;;;4.65;;
77111;SDS011;66064;50.226;14.344;2023-07-13T01:32:11;7.40;;;5.25;;
77111;SDS011;66064;50.226;14.344;2023-07-13T01:34:40;6.03;;;5.45;;
77111;SDS011;66064;50.226;14.344;2023-07-13T01:37:08;6.10;;;5.50;;
77111;SDS011;66064;50.226;14.344;2023-07-13T01:39:34;6.30;;;5.68;;
77111;SDS011;66064;50.226;14.344;2023-07-13T01:42:01;8.55;;;5.13;;
77111;SDS011;66064;50.226;14.344;2023-07-13T01:44:27;7.70;;;5.68;;
77111;SDS011;66064;50.226;14.344;2023-07-13T01:46:53;7.03;;;5.38;;
77111;SDS011;66064;50.226;14.344;2023-07-13T01:49:19;6.13;;;5.03;;
77111;SDS011;66064;50.226;14.344;2023-07-13T01:51:45;6.75;;;5.68;;
77111;SDS011;66064;50.226;14.344;2023-07-13T01:54:12;5.72;;;5.22;;
77111;SDS011;66064;50.226;14.344;2023-07-13T01:56:37;6.93;;;5.78;;
77111;SDS011;66064;50.226;14.344;2023-07-13T01:59:04;7.63;;;6.15;;
77111;SDS011;66064;50.226;14.344;2023-07-13T02:01:30;7.30;;;6.32;;
77111;SDS011;66064;50.226;14.344;2023-07-13T02:03:56;6.53;;;5.85;;
77111;SDS011;66064;50.226;14.344;2023-07-13T02:06:22;7.20;;;6.20;;
77111;SDS011;66064;50.226;14.344;2023-07-13T02:08:48;6.82;;;5.07;;
77111;SDS011;66064;50.226;14.344;2023-07-13T02:11:13;6.05;;;5.47;;
77111;SDS011;66064;50.226;14.344;2023-07-13T02:13:39;6.03;;;5.43;;
77111;SDS011;66064;50.226;14.344;2023-07-13T02:16:05;6.65;;;6.05;;
77111;SDS011;66064;50.226;14.344;2023-07-13T02:18:32;6.57;;;5.97;;
77111;SDS011;66064;50.226;14.344;2023-07-13T02:20:58;5.85;;;4.85;;
77111;SDS011;66064;50.226;14.344;2023-07-13T02:23:24;7.82;;;6.15;;
77111;SDS011;66064;50.226;14.344;2023-07-13T02:25:54;6.78;;;6.00;;
77111;SDS011;66064;50.226;14.344;2023-07-13T02:28:24;8.52;;;5.20;;
77111;SDS011;66064;50.226;14.344;2023-07-13T02:30:50;5.30;;;4.80;;
77111;SDS011;66064;50.226;14.344;2023-07-13T02:33:16;6.13;;;5.53;;
77111;SDS011;66064;50.226;14.344;2023-07-13T02:35:42;5.78;;;5.03;;
77111;SDS011;66064;50.226;14.344;2023-07-13T02:38:08;5.80;;;5.15;;
77111;SDS011;66064;50.226;14.344;2023-07-13T02:40:34;4.38;;;3.97;;
77111;SDS011;66064;50.226;14.344;2023-07-13T02:43:03;4.75;;;3.53;;
77111;SDS011;66064;50.226;14.344;2023-07-13T02:45:29;4.50;;;4.15;;
77111;SDS011;66064;50.226;14.344;2023-07-13T02:47:55;6.35;;;4.25;;
77111;SDS011;66064;50.226;14.344;2023-07-13T02:50:21;4.75;;;3.00;;
77111;SDS011;66064;50.226;14.344;2023-07-13T02:52:47;7.15;;;3.78;;
77111;SDS011;66064;50.226;14.344;2023-07-13T02:55:13;4.05;;;3.75;;
77111;SDS011;66064;50.226;14.344;2023-07-13T02:57:39;4.28;;;3.92;;
77111;SDS011;66064;50.226;14.344;2023-07-13T03:00:05;3.72;;;3.33;;
77111;SDS011;66064;50.226;14.344;2023-07-13T03:02:32;3.95;;;3.65;;
77111;SDS011;66064;50.226;14.344;2023-07-13T03:04:59;4.30;;;4.00;;
77111;SDS011;66064;50.226;14.344;2023-07-13T03:07:25;3.78;;;3.40;;
77111;SDS011;66064;50.226;14.344;2023-07-13T03:09:55;5.03;;;3.72;;
77111;SDS011;66064;50.226;14.344;2023-07-13T03:12:23;3.75;;;3.22;;
77111;SDS011;66064;50.226;14.344;2023-07-13T03:14:49;4.20;;;3.08;;
77111;SDS011;66064;50.226;14.344;2023-07-13T03:17:17;4.47;;;3.65;;
77111;SDS011;66064;50.226;14.344;2023-07-13T03:19:43;3.47;;;3.17;;
77111;SDS011;66064;50.226;14.344;2023-07-13T03:22:09;4.13;;;3.72;;
77111;SDS011;66064;50.226;14.344;2023-07-13T03:24:35;4.18;;;3.70;;
77111;SDS011;66064;50.226;14.344;2023-07-13T03:27:04;3.97;;;3.60;;
77111;SDS011;66064;50.226;14.344;2023-07-13T03:29:30;4.55;;;4.15;;
77111;SDS011;66064;50.226;14.344;2023-07-13T03:31:56;4.07;;;3.67;;
77111;SDS011;66064;50.226;14.344;2023-07-13T03:34:22;4.85;;;4.45;;
77111;SDS011;66064;50.226;14.344;2023-07-13T03:36:48;3.70;;;3.40;;
77111;SDS011;66064;50.226;14.344;2023-07-13T03:39:14;3.55;;;3.25;;
77111;SDS011;66064;50.226;14.344;2023-07-13T03:41:40;4.18;;;3.30;;
77111;SDS011;66064;50.226;14.344;2023-07-13T03:44:06;4.15;;;3.75;;
77111;SDS011;66064;50.226;14.344;2023-07-13T03:46:33;5.88;;;4.25;;
77111;SDS011;66064;50.226;14.344;2023-07-13T03:48:59;4.28;;;3.88;;
77111;SDS011;66064;50.226;14.344;2023-07-13T03:51:25;4.28;;;3.95;;
77111;SDS011;66064;50.226;14.344;2023-07-13T03:53:51;4.72;;;4.32;;
77111;SDS011;66064;50.226;14.344;2023-07-13T03:56:18;4.25;;;3.95;;
77111;SDS011;66064;50.226;14.344;2023-07-13T03:58:45;4.70;;;4.30;;
77111;SDS011;66064;50.226;14.344;2023-07-13T04:03:39;5.63;;;4.22;;
77111;SDS011;66064;50.226;14.344;2023-07-13T04:06:07;4.80;;;4.07;;
77111;SDS011;66064;50.226;14.344;2023-07-13T04:08:40;4.38;;;3.97;;
77111;SDS011;66064;50.226;14.344;2023-07-13T04:11:07;4.45;;;3.97;;
77111;SDS011;66064;50.226;14.344;2023-07-13T04:13:32;4.25;;;3.60;;
77111;SDS011;66064;50.226;14.344;2023-07-13T04:15:59;4.55;;;3.92;;
77111;SDS011;66064;50.226;14.344;2023-07-13T04:18:24;4.78;;;4.38;;
77111;SDS011;66064;50.226;14.344;2023-07-13T04:20:51;5.05;;;4.65;;
77111;SDS011;66064;50.226;14.344;2023-07-13T04:23:17;3.80;;;3.03;;
77111;SDS011;66064;50.226;14.344;2023-07-13T04:25:44;4.68;;;4.28;;
77111;SDS011;66064;50.226;14.344;2023-07-13T04:28:12;4.72;;;4.03;;
77111;SDS011;66064;50.226;14.344;2023-07-13T04:30:38;6.90;;;4.63;;
77111;SDS011;66064;50.226;14.344;2023-07-13T04:33:04;4.18;;;3.45;;
77111;SDS011;66064;50.226;14.344;2023-07-13T04:35:30;4.50;;;4.10;;
77111;SDS011;66064;50.226;14.344;2023-07-13T04:37:56;5.07;;;4.60;;
77111;SDS011;66064;50.226;14.344;2023-07-13T04:40:22;5.00;;;3.95;;
77111;SDS011;66064;50.226;14.344;2023-07-13T04:42:48;4.15;;;3.78;;
77111;SDS011;66064;50.226;14.344;2023-07-13T04:45:14;4.38;;;3.97;;
77111;SDS011;66064;50.226;14.344;2023-07-13T04:47:40;5.03;;;4.53;;
77111;SDS011;66064;50.226;14.344;2023-07-13T04:50:07;5.05;;;4.57;;
77111;SDS011;66064;50.226;14.344;2023-07-13T04:52:34;4.43;;;3.97;;
77111;SDS011;66064;50.226;14.344;2023-07-13T04:55:00;4.43;;;3.92;;
77111;SDS011;66064;50.226;14.344;2023-07-13T04:57:27;4.15;;;3.75;;
77111;SDS011;66064;50.226;14.344;2023-07-13T04:59:53;4.60;;;4.18;;
77111;SDS011;66064;50.226;14.344;2023-07-13T05:02:22;4.70;;;4.30;;
77111;SDS011;66064;50.226;14.344;2023-07-13T05:04:48;4.22;;;3.83;;
77111;SDS011;66064;50.226;14.344;2023-07-13T05:07:14;4.70;;;4.20;;
77111;SDS011;66064;50.226;14.344;2023-07-13T05:09:41;4.80;;;4.40;;
77111;SDS011;66064;50.226;14.344;2023-07-13T05:12:08;5.22;;;4.32;;
77111;SDS011;66064;50.226;14.344;2023-07-13T05:14:35;3.72;;;3.40;;
77111;SDS011;66064;50.226;14.344;2023-07-13T05:17:01;4.70;;;4.30;;
77111;SDS011;66064;50.226;14.344;2023-07-13T05:19:27;5.60;;;3.72;;
77111;SDS011;66064;50.226;14.344;2023-07-13T05:21:53;5.72;;;4.55;;
77111;SDS011;66064;50.226;14.344;2023-07-13T05:24:19;5.18;;;4.20;;
77111;SDS011;66064;50.226;14.344;2023-07-13T05:26:45;4.45;;;4.05;;
77111;SDS011;66064;50.226;14.344;2023-07-13T05:29:11;3.65;;;3.17;;
77111;SDS011;66064;50.226;14.344;2023-07-13T05:31:37;6.53;;;4.32;;
77111;SDS011;66064;50.226;14.344;2023-07-13T05:34:03;4.20;;;3.25;;
77111;SDS011;66064;50.226;14.344;2023-07-13T05:36:29;3.72;;;3.42;;
77111;SDS011;66064;50.226;14.344;2023-07-13T05:38:55;4.43;;;3.50;;
77111;SDS011;66064;50.226;14.344;2023-07-13T05:41:21;3.95;;;3.53;;
77111;SDS011;66064;50.226;14.344;2023-07-13T05:43:47;3.85;;;3.35;;
77111;SDS011;66064;50.226;14.344;2023-07-13T05:46:12;5.07;;;3.08;;
77111;SDS011;66064;50.226;14.344;2023-07-13T05:48:39;3.95;;;3.50;;
77111;SDS011;66064;50.226;14.344;2023-07-13T05:51:04;3.97;;;3.55;;
77111;SDS011;66064;50.226;14.344;2023-07-13T05:53:30;2.58;;;2.15;;
77111;SDS011;66064;50.226;14.344;2023-07-13T05:55:56;3.88;;;3.15;;
77111;SDS011;66064;50.226;14.344;2023-07-13T05:58:22;4.47;;;3.03;;
77111;SDS011;66064;50.226;14.344;2023-07-13T06:00:48;3.33;;;2.83;;
77111;SDS011;66064;50.226;14.344;2023-07-13T06:03:25;5.75;;;3.38;;
77111;SDS011;66064;50.226;14.344;2023-07-13T06:05:51;3.45;;;3.13;;
77111;SDS011;66064;50.226;14.344;2023-07-13T06:08:17;4.88;;;3.03;;
77111;SDS011;66064;50.226;14.344;2023-07-13T06:10:43;4.70;;;3.17;;
77111;SDS011;66064;50.226;14.344;2023-07-13T06:13:09;4.38;;;2.45;;
77111;SDS011;66064;50.226;14.344;2023-07-13T06:15:35;4.07;;;2.67;;
77111;SDS011;66064;50.226;14.344;2023-07-13T06:18:01;3.60;;;2.67;;
77111;SDS011;66064;50.226;14.344;2023-07-13T06:20:27;3.55;;;2.67;;
77111;SDS011;66064;50.226;14.344;2023-07-13T06:22:54;3.10;;;2.30;;
77111;SDS011;66064;50.226;14.344;2023-07-13T06:25:20;3.08;;;2.30;;
77111;SDS011;66064;50.226;14.344;2023-07-13T06:27:47;3.45;;;2.92;;
77111;SDS011;66064;50.226;14.344;2023-07-13T06:30:13;3.45;;;2.90;;
77111;SDS011;66064;50.226;14.344;2023-07-13T06:32:39;3.20;;;2.30;;
77111;SDS011;66064;50.226;14.344;2023-07-13T06:35:05;3.20;;;2.53;;
77111;SDS011;66064;50.226;14.344;2023-07-13T06:37:31;3.10;;;2.20;;
77111;SDS011;66064;50.226;14.344;2023-07-13T06:39:58;4.00;;;2.60;;
77111;SDS011;66064;50.226;14.344;2023-07-13T06:42:24;2.85;;;2.10;;
77111;SDS011;66064;50.226;14.344;2023-07-13T06:44:50;3.08;;;2.22;;
77111;SDS011;66064;50.226;14.344;2023-07-13T06:47:16;4.88;;;2.40;;
77111;SDS011;66064;50.226;14.344;2023-07-13T06:49:42;3.03;;;2.15;;
77111;SDS011;66064;50.226;14.344;2023-07-13T06:52:08;3.55;;;2.25;;
77111;SDS011;66064;50.226;14.344;2023-07-13T06:54:34;3.13;;;1.98;;
77111;SDS011;66064;50.226;14.344;2023-07-13T06:57:00;2.80;;;2.10;;
77111;SDS011;66064;50.226;14.344;2023-07-13T06:59:26;2.95;;;2.25;;
77111;SDS011;66064;50.226;14.344;2023-07-13T07:01:52;4.03;;;2.83;;
77111;SDS011;66064;50.226;14.344;2023-07-13T07:04:18;4.97;;;2.17;;
77111;SDS011;66064;50.226;14.344;2023-07-13T07:06:44;3.13;;;1.95;;
77111;SDS011;66064;50.226;14.344;2023-07-13T07:09:11;3.08;;;2.13;;
77111;SDS011;66064;50.226;14.344;2023-07-13T07:11:37;2.40;;;1.80;;
77111;SDS011;66064;50.226;14.344;2023-07-13T07:14:03;2.30;;;1.75;;
77111;SDS011;66064;50.226;14.344;2023-07-13T07:16:29;3.17;;;1.85;;
77111;SDS011;66064;50.226;14.344;2023-07-13T07:18:55;4.13;;;1.80;;
77111;SDS011;66064;50.226;14.344;2023-07-13T07:21:21;4.07;;;1.75;;
77111;SDS011;66064;50.226;14.344;2023-07-13T07:23:48;3.30;;;2.20;;
77111;SDS011;66064;50.226;14.344;2023-07-13T07:26:14;3.22;;;1.85;;
77111;SDS011;66064;50.226;14.344;2023-07-13T07:28:40;5.95;;;2.30;;
77111;SDS011;66064;50.226;14.344;2023-07-13T07:31:07;3.00;;;1.75;;
77111;SDS011;66064;50.226;14.344;2023-07-13T07:33:33;3.50;;;1.88;;
77111;SDS011;66064;50.226;14.344;2023-07-13T07:36:00;5.43;;;2.10;;
77111;SDS011;66064;50.226;14.344;2023-07-13T07:38:27;2.30;;;1.50;;
77111;SDS011;66064;50.226;14.344;2023-07-13T07:40:53;2.60;;;1.60;;
77111;SDS011;66064;50.226;14.344;2023-07-13T07:43:19;2.55;;;1.70;;
77111;SDS011;66064;50.226;14.344;2023-07-13T07:45:45;3.17;;;1.80;;
77111;SDS011;66064;50.226;14.344;2023-07-13T07:48:11;2.78;;;1.52;;
77111;SDS011;66064;50.226;14.344;2023-07-13T07:50:38;3.53;;;1.65;;
77111;SDS011;66064;50.226;14.344;2023-07-13T07:53:04;2.83;;;1.58;;
77111;SDS011;66064;50.226;14.344;2023-07-13T07:55:36;3.63;;;1.67;;
77111;SDS011;66064;50.226;14.344;2023-07-13T07:58:02;4.85;;;1.58;;
77111;SDS011;66064;50.226;14.344;2023-07-13T08:00:28;2.72;;;1.80;;
77111;SDS011;66064;50.226;14.344;2023-07-13T08:02:57;2.78;;;1.70;;
77111;SDS011;66064;50.226;14.344;2023-07-13T08:05:24;2.35;;;1.50;;
77111;SDS011;66064;50.226;14.344;2023-07-13T08:07:50;3.13;;;1.50;;
77111;SDS011;66064;50.226;14.344;2023-07-13T08:10:16;3.42;;;1.70;;
77111;SDS011;66064;50.226;14.344;2023-07-13T08:12:42;2.72;;;1.58;;
77111;SDS011;66064;50.226;14.344;2023-07-13T08:15:10;2.78;;;1.38;;
77111;SDS011;66064;50.226;14.344;2023-07-13T08:17:38;2.80;;;1.42;;
77111;SDS011;66064;50.226;14.344;2023-07-13T08:20:04;2.25;;;1.67;;
77111;SDS011;66064;50.226;14.344;2023-07-13T08:22:30;2.90;;;1.40;;
77111;SDS011;66064;50.226;14.344;2023-07-13T08:24:58;2.85;;;1.33;;
77111;SDS011;66064;50.226;14.344;2023-07-13T08:27:25;2.70;;;1.40;;
77111;SDS011;66064;50.226;14.344;2023-07-13T08:29:53;2.55;;;1.50;;
77111;SDS011;66064;50.226;14.344;2023-07-13T08:32:20;2.40;;;1.40;;
77111;SDS011;66064;50.226;14.344;2023-07-13T08:34:48;2.45;;;1.40;;
77111;SDS011;66064;50.226;14.344;2023-07-13T08:37:14;2.30;;;1.42;;
77111;SDS011;66064;50.226;14.344;2023-07-13T08:39:41;3.13;;;1.75;;
77111;SDS011;66064;50.226;14.344;2023-07-13T08:45:06;2.00;;;1.30;;
77111;SDS011;66064;50.226;14.344;2023-07-13T08:47:55;2.08;;;1.30;;
77111;SDS011;66064;50.226;14.344;2023-07-13T08:50:31;2.20;;;1.42;;
77111;SDS011;66064;50.226;14.344;2023-07-13T08:53:01;3.08;;;1.20;;
77111;SDS011;66064;50.226;14.344;2023-07-13T08:55:30;1.98;;;1.48;;
77111;SDS011;66064;50.226;14.344;2023-07-13T08:58:19;2.15;;;1.42;;
77111;SDS011;66064;50.226;14.344;2023-07-13T09:03:29;2.78;;;1.35;;
77111;SDS011;66064;50.226;14.344;2023-07-13T09:06:01;3.88;;;1.70;;
77111;SDS011;66064;50.226;14.344;2023-07-13T09:08:34;1.90;;;1.30;;
77111;SDS011;66064;50.226;14.344;2023-07-13T09:16:39;2.00;;;1.23;;
77111;SDS011;66064;50.226;14.344;2023-07-13T09:19:08;2.67;;;1.35;;
77111;SDS011;66064;50.226;14.344;2023-07-13T09:21:41;2.85;;;1.60;;
77111;SDS011;66064;50.226;14.344;2023-07-13T09:26:59;3.42;;;1.60;;
77111;SDS011;66064;50.226;14.344;2023-07-13T09:29:30;1.52;;;1.30;;
77111;SDS011;66064;50.226;14.344;2023-07-13T09:32:04;2.53;;;1.70;;
77111;SDS011;66064;50.226;14.344;2023-07-13T09:34:34;3.58;;;1.50;;
77111;SDS011;66064;50.226;14.344;2023-07-13T09:37:00;1.85;;;1.35;;
77111;SDS011;66064;50.226;14.344;2023-07-13T09:42:46;2.60;;;1.60;;
77111;SDS011;66064;50.226;14.344;2023-07-13T09:45:12;2.67;;;1.40;;
77111;SDS011;66064;50.226;14.344;2023-07-13T09:47:58;3.30;;;1.63;;
77111;SDS011;66064;50.226;14.344;2023-07-13T09:50:36;2.00;;;1.30;;
77111;SDS011;66064;50.226;14.344;2023-07-13T09:53:02;2.65;;;1.30;;
77111;SDS011;66064;50.226;14.344;2023-07-13T09:55:36;3.38;;;1.30;;
77111;SDS011;66064;50.226;14.344;2023-07-13T09:58:04;3.38;;;1.27;;
77111;SDS011;66064;50.226;14.344;2023-07-13T10:03:27;2.17;;;1.20;;
77111;SDS011;66064;50.226;14.344;2023-07-13T10:06:12;2.00;;;1.30;;
77111;SDS011;66064;50.226;14.344;2023-07-13T10:08:40;3.10;;;1.48;;
77111;SDS011;66064;50.226;14.344;2023-07-13T10:11:11;2.55;;;1.27;;
77111;SDS011;66064;50.226;14.344;2023-07-13T10:13:53;1.90;;;1.20;;
77111;SDS011;66064;50.226;14.344;2023-07-13T10:16:22;2.55;;;1.17;;
77111;SDS011;66064;50.226;14.344;2023-07-13T10:19:02;1.65;;;1.20;;
77111;SDS011;66064;50.226;14.344;2023-07-13T10:21:35;2.58;;;1.30;;
77111;SDS011;66064;50.226;14.344;2023-07-13T10:24:15;3.25;;;1.40;;
77111;SDS011;66064;50.226;14.344;2023-07-13T10:29:24;3.45;;;1.30;;
77111;SDS011;66064;50.226;14.344;2023-07-13T10:31:52;5.22;;;1.60;;
77111;SDS011;66064;50.226;14.344;2023-07-13T10:34:18;1.55;;;1.15;;
77111;SDS011;66064;50.226;14.344;2023-07-13T10:36:47;2.20;;;1.40;;
77111;SDS011;66064;50.226;14.344;2023-07-13T10:41:59;3.38;;;1.30;;
77111;SDS011;66064;50.226;14.344;2023-07-13T10:44:30;2.80;;;1.50;;
77111;SDS011;66064;50.226;14.344;2023-07-13T10:46:58;2.70;;;1.50;;
77111;SDS011;66064;50.226;14.344;2023-07-13T10:49:27;2.30;;;1.08;;
77111;SDS011;66064;50.226;14.344;2023-07-13T10:51:56;1.52;;;1.20;;
77111;SDS011;66064;50.226;14.344;2023-07-13T10:54:27;2.30;;;1.20;;
77111;SDS011;66064;50.226;14.344;2023-07-13T10:57:06;3.58;;;1.50;;
77111;SDS011;66064;50.226;14.344;2023-07-13T10:59:34;1.90;;;1.23;;
77111;SDS011;66064;50.226;14.344;2023-07-13T11:04:41;3.47;;;1.42;;
77111;SDS011;66064;50.226;14.344;2023-07-13T11:07:31;3.30;;;1.65;;
77111;SDS011;66064;50.226;14.344;2023-07-13T11:10:45;2.00;;;1.30;;
77111;SDS011;66064;50.226;14.344;2023-07-13T11:16:14;3.30;;;1.50;;
77111;SDS011;66064;50.226;14.344;2023-07-13T11:21:31;2.00;;;1.25;;
77111;SDS011;66064;50.226;14.344;2023-07-13T11:27:00;2.53;;;1.80;;
77111;SDS011;66064;50.226;14.344;2023-07-13T11:29:45;2.30;;;1.50;;
77111;SDS011;66064;50.226;14.344;2023-07-13T11:32:24;2.10;;;1.33;;
77111;SDS011;66064;50.226;14.344;2023-07-13T11:34:55;4.78;;;1.90;;
77111;SDS011;66064;50.226;14.344;2023-07-13T11:37:21;2.15;;;1.30;;
77111;SDS011;66064;50.226;14.344;2023-07-13T11:39:48;3.65;;;2.03;;
77111;SDS011;66064;50.226;14.344;2023-07-13T11:42:18;2.85;;;1.58;;
77111;SDS011;66064;50.226;14.344;2023-07-13T11:44:48;2.35;;;1.55;;
77111;SDS011;66064;50.226;14.344;2023-07-13T11:47:17;2.75;;;1.70;;
77111;SDS011;66064;50.226;14.344;2023-07-13T11:49:51;2.22;;;1.70;;
77111;SDS011;66064;50.226;14.344;2023-07-13T11:52:24;3.40;;;1.70;;
77111;SDS011;66064;50.226;14.344;2023-07-13T11:55:01;2.40;;;1.67;;
77111;SDS011;66064;50.226;14.344;2023-07-13T11:57:38;3.88;;;2.00;;
77111;SDS011;66064;50.226;14.344;2023-07-13T12:00:13;2.35;;;1.40;;
77111;SDS011;66064;50.226;14.344;2023-07-13T12:02:43;2.80;;;1.88;;
77111;SDS011;66064;50.226;14.344;2023-07-13T12:05:14;2.10;;;1.70;;
77111;SDS011;66064;50.226;14.344;2023-07-13T12:07:43;2.38;;;1.63;;
77111;SDS011;66064;50.226;14.344;2023-07-13T12:13:05;2.60;;;1.77;;
77111;SDS011;66064;50.226;14.344;2023-07-13T12:15:41;3.42;;;1.90;;
77111;SDS011;66064;50.226;14.344;2023-07-13T12:18:19;3.38;;;1.95;;
77111;SDS011;66064;50.226;14.344;2023-07-13T12:20:47;2.70;;;1.70;;
77111;SDS011;66064;50.226;14.344;2023-07-13T12:23:21;2.85;;;2.10;;
77111;SDS011;66064;50.226;14.344;2023-07-13T12:25:50;3.03;;;1.40;;
77111;SDS011;66064;50.226;14.344;2023-07-13T12:30:59;2.83;;;1.70;;
77111;SDS011;66064;50.226;14.344;2023-07-13T12:33:30;3.22;;;1.95;;
77111;SDS011;66064;50.226;14.344;2023-07-13T12:35:57;2.90;;;2.00;;
77111;SDS011;66064;50.226;14.344;2023-07-13T12:38:30;2.92;;;1.98;;
77111;SDS011;66064;50.226;14.344;2023-07-13T12:40:56;2.88;;;2.10;;
77111;SDS011;66064;50.226;14.344;2023-07-13T12:43:23;2.65;;;1.90;;
77111;SDS011;66064;50.226;14.344;2023-07-13T12:45:56;4.97;;;2.38;;
77111;SDS011;66064;50.226;14.344;2023-07-13T12:48:42;2.70;;;1.90;;
77111;SDS011;66064;50.226;14.344;2023-07-13T12:51:13;2.78;;;2.15;;
77111;SDS011;66064;50.226;14.344;2023-07-13T12:53:41;3.08;;;1.80;;
77111;SDS011;66064;50.226;14.344;2023-07-13T12:56:15;3.38;;;1.75;;
77111;SDS011;66064;50.226;14.344;2023-07-13T12:58:47;2.92;;;2.00;;
77111;SDS011;66064;50.226;14.344;2023-07-13T13:01:20;2.95;;;2.00;;
77111;SDS011;66064;50.226;14.344;2023-07-13T13:03:52;3.75;;;2.17;;
77111;SDS011;66064;50.226;14.344;2023-07-13T13:06:25;3.00;;;1.95;;
77111;SDS011;66064;50.226;14.344;2023-07-13T13:08:54;2.40;;;1.80;;
77111;SDS011;66064;50.226;14.344;2023-07-13T13:11:24;3.72;;;2.35;;
77111;SDS011;66064;50.226;14.344;2023-07-13T13:13:52;2.45;;;2.03;;
77111;SDS011;66064;50.226;14.344;2023-07-13T13:16:23;2.28;;;1.75;;
77111;SDS011;66064;50.226;14.344;2023-07-13T13:18:53;3.28;;;1.92;;
77111;SDS011;66064;50.226;14.344;2023-07-13T13:21:22;2.90;;;2.10;;
77111;SDS011;66064;50.226;14.344;2023-07-13T13:23:49;4.85;;;2.00;;
77111;SDS011;66064;50.226;14.344;2023-07-13T13:26:18;2.88;;;2.08;;
77111;SDS011;66064;50.226;14.344;2023-07-13T13:28:45;3.47;;;2.33;;
77111;SDS011;66064;50.226;14.344;2023-07-13T13:31:13;4.80;;;2.17;;
77111;SDS011;66064;50.226;14.344;2023-07-13T13:33:40;2.70;;;2.10;;
77111;SDS011;66064;50.226;14.344;2023-07-13T13:36:15;2.80;;;1.77;;
77111;SDS011;66064;50.226;14.344;2023-07-13T13:38:43;2.58;;;2.10;;
77111;SDS011;66064;50.226;14.344;2023-07-13T13:41:10;2.78;;;2.00;;
77111;SDS011;66064;50.226;14.344;2023-07-13T13:43:38;2.53;;;2.00;;
77111;SDS011;66064;50.226;14.344;2023-07-13T13:46:11;3.03;;;2.00;;
77111;SDS011;66064;50.226;14.344;2023-07-13T13:48:43;2.80;;;1.88;;
77111;SDS011;66064;50.226;14.344;2023-07-13T13:51:19;2.97;;;1.80;;
77111;SDS011;66064;50.226;14.344;2023-07-13T13:53:47;2.83;;;1.92;;
77111;SDS011;66064;50.226;14.344;2023-07-13T13:56:14;3.85;;;2.00;;
77111;SDS011;66064;50.226;14.344;2023-07-13T13:58:41;4.88;;;2.35;;
77111;SDS011;66064;50.226;14.344;2023-07-13T14:01:19;5.00;;;2.13;;
77111;SDS011;66064;50.226;14.344;2023-07-13T14:03:47;2.45;;;1.85;;
77111;SDS011;66064;50.226;14.344;2023-07-13T14:06:19;2.83;;;1.75;;
77111;SDS011;66064;50.226;14.344;2023-07-13T14:08:45;2.95;;;2.25;;
77111;SDS011;66064;50.226;14.344;2023-07-13T14:11:13;4.68;;;2.10;;
77111;SDS011;66064;50.226;14.344;2023-07-13T14:13:46;2.63;;;1.92;;
77111;SDS011;66064;50.226;14.344;2023-07-13T14:16:15;3.05;;;2.10;;
77111;SDS011;66064;50.226;14.344;2023-07-13T14:18:44;2.80;;;1.88;;
77111;SDS011;66064;50.226;14.344;2023-07-13T14:21:14;3.53;;;2.08;;
77111;SDS011;66064;50.226;14.344;2023-07-13T14:23:42;2.50;;;1.98;;
77111;SDS011;66064;50.226;14.344;2023-07-13T14:28:53;3.10;;;2.15;;
77111;SDS011;66064;50.226;14.344;2023-07-13T14:31:21;2.67;;;2.00;;
77111;SDS011;66064;50.226;14.344;2023-07-13T14:33:48;2.90;;;2.08;;
77111;SDS011;66064;50.226;14.344;2023-07-13T14:36:20;3.05;;;1.90;;
77111;SDS011;66064;50.226;14.344;2023-07-13T14:38:47;2.80;;;1.75;;
77111;SDS011;66064;50.226;14.344;2023-07-13T14:41:13;3.08;;;1.92;;
77111;SDS011;66064;50.226;14.344;2023-07-13T14:43:39;3.10;;;2.35;;
77111;SDS011;66064;50.226;14.344;2023-07-13T14:46:05;2.70;;;1.98;;
77111;SDS011;66064;50.226;14.344;2023-07-13T14:48:38;4.75;;;1.98;;
77111;SDS011;66064;50.226;14.344;2023-07-13T14:51:04;2.42;;;1.98;;
77111;SDS011;66064;50.226;14.344;2023-07-13T14:53:33;4.05;;;2.42;;
77111;SDS011;66064;50.226;14.344;2023-07-13T14:56:00;3.80;;;2.10;;
77111;SDS011;66064;50.226;14.344;2023-07-13T14:58:27;2.95;;;2.00;;
77111;SDS011;66064;50.226;14.344;2023-07-13T15:00:52;3.90;;;2.30;;
77111;SDS011;66064;50.226;14.344;2023-07-13T15:03:21;2.58;;;2.00;;
77111;SDS011;66064;50.226;14.344;2023-07-13T15:05:50;3.08;;;1.88;;
77111;SDS011;66064;50.226;14.344;2023-07-13T15:08:18;4.32;;;2.30;;
77111;SDS011;66064;50.226;14.344;2023-07-13T15:10:44;3.70;;;1.92;;
77111;SDS011;66064;50.226;14.344;2023-07-13T15:13:15;2.95;;;2.20;;
77111;SDS011;66064;50.226;14.344;2023-07-13T15:15:44;2.53;;;2.05;;
77111;SDS011;66064;50.226;14.344;2023-07-13T15:18:12;2.60;;;2.10;;
77111;SDS011;66064;50.226;14.344;2023-07-13T15:20:42;2.95;;;2.30;;
77111;SDS011;66064;50.226;14.344;2023-07-13T15:23:14;4.10;;;2.70;;
77111;SDS011;66064;50.226;14.344;2023-07-13T15:25:41;3.10;;;2.13;;
77111;SDS011;66064;50.226;14.344;2023-07-13T15:28:09;2.70;;;2.20;;
77111;SDS011;66064;50.226;14.344;2023-07-13T15:30:48;3.97;;;2.47;;